Time;durP1;ratioP1;P1;durP2;ratioP2;P2;SDS_P1;SDS_P2;PMS_P1;PMS_P2;Temp;Humidity;BMP_temperature;BMP_pressure;BME280_temperature;BME280_humidity;BME280_pressure;Samples;Min_cycle;Max_cycle;Signal;HPM_P1;HPM_P2
2023/07/09 00:02:21;;;;;;;4.70;3.83;;;;;;;;;;5144041;27;20205;-70
2023/07/09 00:04:47;;;;;;;6.35;4.13;;;;;;;;;;5144543;27;20208;-70
2023/07/09 00:07:17;;;;;;;5.43;4.03;;;;;;;;;;5144390;27;20206;-70
2023/07/09 00:09:43;;;;;;;4.53;3.78;;;;;;;;;;5144121;27;20200;-70
2023/07/09 00:12:12;;;;;;;4.07;3.67;;;;;;;;;;5144345;27;20194;-70
2023/07/09 00:14:38;;;;;;;4.47;3.83;;;;;;;;;;5144299;27;20201;-70
2023/07/09 00:17:08;;;;;;;8.25;4.30;;;;;;;;;;5143975;27;20194;-70
2023/07/09 00:19:35;;;;;;;4.15;3.72;;;;;;;;;;5144136;27;20201;-70
2023/07/09 00:22:01;;;;;;;3.83;3.53;;;;;;;;;;5143867;27;20194;-70
2023/07/09 00:24:28;;;;;;;5.63;4.25;;;;;;;;;;5144338;27;20194;-70
2023/07/09 00:26:54;;;;;;;4.68;3.28;;;;;;;;;;5144102;27;20421;-69
2023/07/09 00:29:21;;;;;;;4.97;3.20;;;;;;;;;;5144069;27;20209;-69
2023/07/09 00:31:47;;;;;;;3.75;3.42;;;;;;;;;;5143843;27;20206;-69
2023/07/09 00:34:14;;;;;;;6.75;3.10;;;;;;;;;;5143856;27;20220;-69
2023/07/09 00:36:43;;;;;;;3.75;3.28;;;;;;;;;;5143739;27;20222;-69
2023/07/09 00:39:15;;;;;;;5.32;3.38;;;;;;;;;;5143608;27;20440;-69
2023/07/09 00:41:41;;;;;;;4.63;4.10;;;;;;;;;;5143482;27;20197;-70
2023/07/09 00:44:28;;;;;;;6.40;4.55;;;;;;;;;;5143695;27;20521;-70
2023/07/09 00:47:13;;;;;;;6.60;4.68;;;;;;;;;;5143701;27;20542;-70
2023/07/09 00:49:46;;;;;;;6.10;4.53;;;;;;;;;;5143571;27;20194;-70
2023/07/09 00:52:20;;;;;;;4.47;4.05;;;;;;;;;;5143644;27;20222;-70
2023/07/09 00:54:47;;;;;;;4.60;4.20;;;;;;;;;;5143544;27;20194;-70
2023/07/09 00:57:17;;;;;;;5.40;3.60;;;;;;;;;;5143436;27;20218;-70
2023/07/09 00:59:44;;;;;;;3.47;3.25;;;;;;;;;;5143430;27;20209;-70
2023/07/09 01:02:10;;;;;;;3.95;3.58;;;;;;;;;;5143310;27;20194;-70
2023/07/09 01:04:39;;;;;;;4.38;3.45;;;;;;;;;;5143595;27;20392;-70
2023/07/09 01:07:05;;;;;;;4.72;3.75;;;;;;;;;;5143584;27;20190;-70
2023/07/09 01:09:35;;;;;;;4.18;3.53;;;;;;;;;;5143313;27;20205;-70
2023/07/09 01:12:01;;;;;;;3.67;3.38;;;;;;;;;;5143115;27;20256;-70
2023/07/09 01:14:28;;;;;;;4.00;3.45;;;;;;;;;;5143256;27;20194;-70
2023/07/09 01:16:58;;;;;;;6.22;3.42;;;;;;;;;;5143367;27;20533;-70
2023/07/09 01:19:26;;;;;;;6.22;3.05;;;;;;;;;;5143045;27;20201;-70
2023/07/09 01:21:54;;;;;;;3.70;3.20;;;;;;;;;;5142881;27;20567;-70
2023/07/09 01:24:35;;;;;;;4.88;3.25;;;;;;;;;;5143213;27;20198;-70
2023/07/09 01:27:02;;;;;;;4.40;3.15;;;;;;;;;;5142329;28;20214;-70
2023/07/09 01:29:31;;;;;;;3.33;3.03;;;;;;;;;;5143021;27;20214;-70
2023/07/09 01:31:58;;;;;;;3.83;3.45;;;;;;;;;;5142888;27;20458;-70
2023/07/09 01:34:25;;;;;;;4.28;3.25;;;;;;;;;;5142839;27;20200;-70
2023/07/09 01:36:51;;;;;;;5.90;3.53;;;;;;;;;;5142761;27;20230;-70
2023/07/09 01:39:19;;;;;;;4.47;3.50;;;;;;;;;;5143368;27;20194;-70
2023/07/09 01:41:47;;;;;;;3.92;3.50;;;;;;;;;;5142889;27;20194;-70
2023/07/09 01:44:13;;;;;;;4.68;3.85;;;;;;;;;;5143006;27;20218;-70
2023/07/09 01:46:41;;;;;;;3.50;3.20;;;;;;;;;;5143068;27;20225;-70
2023/07/09 01:49:08;;;;;;;4.05;3.40;;;;;;;;;;5142829;27;20473;-70
2023/07/09 01:51:36;;;;;;;4.93;3.38;;;;;;;;;;5142954;27;20194;-70
2023/07/09 01:54:02;;;;;;;3.47;3.17;;;;;;;;;;5143022;27;20266;-70
2023/07/09 01:56:30;;;;;;;3.42;3.13;;;;;;;;;;5142955;27;20634;-70
2023/07/09 01:59:01;;;;;;;5.22;3.25;;;;;;;;;;5143178;27;20199;-70
2023/07/09 02:01:27;;;;;;;3.30;3.00;;;;;;;;;;5142696;27;20195;-70
2023/07/09 02:03:54;;;;;;;3.90;3.58;;;;;;;;;;5142743;27;20516;-70
2023/07/09 02:06:20;;;;;;;5.07;3.38;;;;;;;;;;5142723;27;20191;-70
2023/07/09 02:08:46;;;;;;;4.00;3.08;;;;;;;;;;5142735;27;20195;-70
2023/07/09 02:11:12;;;;;;;3.92;3.10;;;;;;;;;;5142854;27;20195;-70
2023/07/09 02:13:40;;;;;;;3.83;3.28;;;;;;;;;;5142571;27;20202;-70
2023/07/09 02:16:06;;;;;;;3.70;3.40;;;;;;;;;;5142483;27;20220;-70
2023/07/09 02:18:33;;;;;;;4.13;3.50;;;;;;;;;;5142616;27;20263;-70
2023/07/09 02:20:59;;;;;;;3.70;3.40;;;;;;;;;;5142843;27;20194;-70
2023/07/09 02:23:27;;;;;;;4.10;3.50;;;;;;;;;;5142405;27;20206;-70
2023/07/09 02:25:53;;;;;;;4.22;3.45;;;;;;;;;;5142696;27;20198;-70
2023/07/09 02:28:19;;;;;;;4.15;3.75;;;;;;;;;;5142594;27;20234;-70
2023/07/09 02:30:47;;;;;;;4.50;3.25;;;;;;;;;;5142466;27;20195;-70
2023/07/09 02:33:13;;;;;;;3.80;3.20;;;;;;;;;;5144925;27;20525;-70
2023/07/09 02:35:39;;;;;;;4.07;3.65;;;;;;;;;;5146159;27;20206;-70
2023/07/09 02:38:06;;;;;;;5.85;3.65;;;;;;;;;;5146315;27;20194;-70
2023/07/09 02:40:33;;;;;;;4.72;3.25;;;;;;;;;;5146155;27;20199;-70
2023/07/09 02:43:00;;;;;;;4.30;3.72;;;;;;;;;;5145970;27;20198;-70
2023/07/09 02:45:26;;;;;;;5.22;3.63;;;;;;;;;;5145899;27;20390;-70
2023/07/09 02:47:53;;;;;;;4.10;3.65;;;;;;;;;;5146202;27;20385;-70
2023/07/09 02:50:20;;;;;;;5.47;3.88;;;;;;;;;;5145920;27;20198;-70
2023/07/09 02:52:46;;;;;;;5.57;3.50;;;;;;;;;;5145672;27;20205;-70
2023/07/09 02:55:12;;;;;;;3.45;3.25;;;;;;;;;;5145830;27;20202;-70
2023/07/09 02:57:38;;;;;;;4.10;3.25;;;;;;;;;;5145695;27;20222;-70
2023/07/09 03:00:06;;;;;;;4.25;3.30;;;;;;;;;;5145712;27;20202;-70
2023/07/09 03:02:32;;;;;;;5.35;3.53;;;;;;;;;;5145598;27;20454;-70
2023/07/09 03:05:00;;;;;;;3.67;3.38;;;;;;;;;;5145532;27;20221;-70
2023/07/09 03:07:26;;;;;;;4.28;3.40;;;;;;;;;;5145473;27;20199;-70
2023/07/09 03:09:53;;;;;;;6.95;3.55;;;;;;;;;;5145626;27;20201;-70
2023/07/09 03:12:19;;;;;;;4.90;3.60;;;;;;;;;;5145255;27;20194;-70
2023/07/09 03:14:48;;;;;;;3.65;3.35;;;;;;;;;;5145340;27;20201;-70
2023/07/09 03:17:14;;;;;;;5.38;3.60;;;;;;;;;;5145575;27;20571;-70
2023/07/09 03:19:41;;;;;;;6.40;4.00;;;;;;;;;;5145453;27;20194;-70
2023/07/09 03:22:08;;;;;;;4.35;3.35;;;;;;;;;;5145320;27;20386;-70
2023/07/09 03:24:34;;;;;;;4.25;3.85;;;;;;;;;;5145105;27;20202;-70
2023/07/09 03:27:01;;;;;;;3.80;3.60;;;;;;;;;;5145142;27;20513;-70
2023/07/09 03:29:27;;;;;;;3.70;3.40;;;;;;;;;;5145265;27;20200;-70
2023/07/09 03:31:53;;;;;;;5.32;3.42;;;;;;;;;;5144929;27;20195;-70
2023/07/09 03:34:20;;;;;;;5.20;3.97;;;;;;;;;;5145097;27;20217;-70
2023/07/09 03:36:46;;;;;;;4.65;3.95;;;;;;;;;;5145024;27;20221;-70
2023/07/09 03:39:14;;;;;;;7.05;3.20;;;;;;;;;;5144994;27;20202;-70
2023/07/09 03:41:40;;;;;;;3.80;3.28;;;;;;;;;;5144692;27;20440;-69
2023/07/09 03:44:06;;;;;;;7.18;3.75;;;;;;;;;;5144726;27;20198;-70
2023/07/09 03:46:32;;;;;;;4.10;3.40;;;;;;;;;;5144986;27;20194;-70
2023/07/09 03:48:59;;;;;;;10.40;3.70;;;;;;;;;;5144863;27;20393;-70
2023/07/09 03:51:26;;;;;;;4.35;3.50;;;;;;;;;;5144610;27;20201;-70
2023/07/09 03:53:52;;;;;;;6.43;3.97;;;;;;;;;;5144658;27;20194;-70
2023/07/09 03:56:19;;;;;;;4.53;3.72;;;;;;;;;;5144529;27;20414;-70
2023/07/09 03:58:46;;;;;;;4.78;3.95;;;;;;;;;;5144788;27;20240;-70
2023/07/09 04:01:12;;;;;;;3.30;3.00;;;;;;;;;;5144329;27;20202;-70
2023/07/09 04:03:38;;;;;;;6.97;3.53;;;;;;;;;;5144639;27;20370;-70
2023/07/09 04:06:05;;;;;;;5.68;4.13;;;;;;;;;;5144738;27;20217;-70
2023/07/09 04:08:31;;;;;;;6.97;3.97;;;;;;;;;;5140991;27;20521;-69
2023/07/09 04:10:59;;;;;;;5.65;4.40;;;;;;;;;;5125504;27;20199;-69
2023/07/09 04:13:28;;;;;;;4.72;3.95;;;;;;;;;;5123760;28;20502;-69
2023/07/09 04:15:54;;;;;;;9.60;4.07;;;;;;;;;;5123428;28;20201;-72
2023/07/09 04:18:20;;;;;;;5.53;3.92;;;;;;;;;;5123509;27;20198;-72
2023/07/09 04:20:48;;;;;;;4.13;3.72;;;;;;;;;;5123618;28;20196;-72
2023/07/09 04:23:15;;;;;;;5.15;3.72;;;;;;;;;;5123396;28;20195;-72
2023/07/09 04:25:41;;;;;;;4.05;3.65;;;;;;;;;;5123567;28;20210;-72
2023/07/09 04:28:07;;;;;;;4.50;4.10;;;;;;;;;;5123740;28;20282;-72
2023/07/09 04:30:35;;;;;;;3.78;3.42;;;;;;;;;;5124012;28;20195;-72
2023/07/09 04:33:01;;;;;;;5.07;3.70;;;;;;;;;;5123666;28;20217;-73
2023/07/09 04:35:28;;;;;;;5.40;3.95;;;;;;;;;;5123522;28;20207;-72
2023/07/09 04:37:54;;;;;;;5.60;4.15;;;;;;;;;;5123321;28;20618;-72
2023/07/09 04:40:21;;;;;;;4.28;3.50;;;;;;;;;;5123564;28;20426;-72
2023/07/09 04:42:47;;;;;;;5.93;3.55;;;;;;;;;;5123347;28;20207;-72
2023/07/09 04:45:13;;;;;;;4.03;3.70;;;;;;;;;;5123377;28;20453;-72
2023/07/09 04:47:41;;;;;;;3.80;3.50;;;;;;;;;;5123175;28;20230;-72
2023/07/09 04:50:08;;;;;;;6.88;3.83;;;;;;;;;;5123197;28;20202;-73
2023/07/09 04:52:34;;;;;;;4.13;3.72;;;;;;;;;;5122643;28;20457;-72
2023/07/09 04:55:01;;;;;;;4.28;3.88;;;;;;;;;;5122390;28;20201;-72
2023/07/09 04:57:28;;;;;;;6.97;3.72;;;;;;;;;;5122850;28;20223;-72
2023/07/09 04:59:54;;;;;;;5.15;3.47;;;;;;;;;;5123146;28;20226;-72
2023/07/09 05:02:21;;;;;;;4.80;3.90;;;;;;;;;;5123022;28;20205;-72
2023/07/09 05:04:48;;;;;;;4.32;3.70;;;;;;;;;;5122902;28;20202;-72
2023/07/09 05:07:14;;;;;;;3.58;2.95;;;;;;;;;;5122950;28;20195;-72
2023/07/09 05:09:41;;;;;;;8.40;4.20;;;;;;;;;;5122981;28;20502;-72
2023/07/09 05:12:08;;;;;;;4.18;3.78;;;;;;;;;;5122809;28;20195;-72
2023/07/09 05:14:34;;;;;;;4.57;3.88;;;;;;;;;;5122478;28;20202;-72
2023/07/09 05:17:00;;;;;;;4.35;3.65;;;;;;;;;;5122703;28;20222;-73
2023/07/09 05:19:27;;;;;;;4.13;3.80;;;;;;;;;;5122695;28;20201;-73
2023/07/09 05:21:54;;;;;;;3.92;3.63;;;;;;;;;;5122361;28;20201;-73
2023/07/09 05:24:21;;;;;;;5.97;3.72;;;;;;;;;;5122877;28;20206;-73
2023/07/09 05:26:47;;;;;;;4.32;3.80;;;;;;;;;;5122904;28;20416;-72
2023/07/09 05:29:13;;;;;;;5.85;3.35;;;;;;;;;;5122680;28;20199;-72
2023/07/09 05:31:41;;;;;;;6.90;3.55;;;;;;;;;;5122521;28;20197;-72
2023/07/09 05:34:08;;;;;;;4.13;3.70;;;;;;;;;;5122924;28;20195;-72
2023/07/09 05:36:34;;;;;;;4.30;3.90;;;;;;;;;;5122742;28;20210;-72
2023/07/09 05:39:01;;;;;;;9.57;4.15;;;;;;;;;;5122386;28;20195;-72
2023/07/09 05:41:28;;;;;;;5.82;4.00;;;;;;;;;;5122471;28;20502;-72
2023/07/09 05:43:54;;;;;;;5.32;3.95;;;;;;;;;;5122712;28;20420;-72
2023/07/09 05:46:22;;;;;;;4.70;4.25;;;;;;;;;;5122593;28;20205;-72
2023/07/09 05:48:49;;;;;;;4.38;3.47;;;;;;;;;;5122353;28;20202;-72
2023/07/09 05:51:15;;;;;;;4.70;3.97;;;;;;;;;;5122504;28;20498;-72
2023/07/09 05:53:41;;;;;;;7.22;3.70;;;;;;;;;;5122683;28;20202;-72
2023/07/09 05:56:09;;;;;;;5.55;4.00;;;;;;;;;;5122476;28;20199;-72
2023/07/09 05:58:36;;;;;;;5.47;3.78;;;;;;;;;;5122423;28;20219;-72
2023/07/09 06:01:02;;;;;;;7.68;4.20;;;;;;;;;;5122336;28;20282;-71
2023/07/09 06:03:29;;;;;;;7.32;3.85;;;;;;;;;;5122339;28;20219;-71
2023/07/09 06:05:57;;;;;;;4.05;3.75;;;;;;;;;;5122875;28;20198;-71
2023/07/09 06:08:23;;;;;;;10.57;4.50;;;;;;;;;;5126433;28;20244;-71
2023/07/09 06:10:56;;;;;;;4.35;4.05;;;;;;;;;;5126367;28;20201;-72
2023/07/09 06:13:24;;;;;;;7.05;4.30;;;;;;;;;;5125986;28;20509;-72
2023/07/09 06:15:51;;;;;;;7.53;3.92;;;;;;;;;;5126007;28;20529;-72
2023/07/09 06:18:17;;;;;;;4.45;3.40;;;;;;;;;;5125957;27;20219;-72
2023/07/09 06:20:47;;;;;;;6.13;3.70;;;;;;;;;;5126175;28;20506;-72
2023/07/09 06:23:13;;;;;;;11.05;4.20;;;;;;;;;;5125956;28;20256;-72
2023/07/09 06:25:39;;;;;;;4.32;3.92;;;;;;;;;;5126042;28;20205;-72
2023/07/09 06:28:06;;;;;;;5.60;3.92;;;;;;;;;;5125934;27;20211;-73
2023/07/09 06:30:33;;;;;;;5.30;3.75;;;;;;;;;;5125914;28;20190;-73
2023/07/09 06:33:00;;;;;;;4.63;4.10;;;;;;;;;;5125935;28;20195;-73
2023/07/09 06:35:26;;;;;;;4.80;4.25;;;;;;;;;;5125855;27;20190;-73
2023/07/09 06:37:52;;;;;;;5.32;4.00;;;;;;;;;;5125947;28;20214;-73
2023/07/09 06:40:19;;;;;;;6.22;3.92;;;;;;;;;;5125725;28;20195;-73
2023/07/09 06:42:45;;;;;;;4.57;3.80;;;;;;;;;;5125389;28;20209;-73
2023/07/09 06:45:11;;;;;;;6.38;4.15;;;;;;;;;;5125842;28;20201;-73
2023/07/09 06:47:39;;;;;;;7.35;4.57;;;;;;;;;;5125864;28;20199;-73
2023/07/09 06:50:06;;;;;;;8.55;4.60;;;;;;;;;;5125951;28;20378;-73
2023/07/09 06:52:32;;;;;;;4.55;3.80;;;;;;;;;;5125346;28;20495;-73
2023/07/09 06:54:58;;;;;;;4.68;4.25;;;;;;;;;;5125632;28;20218;-73
2023/07/09 06:57:25;;;;;;;5.75;4.13;;;;;;;;;;5125230;28;20228;-73
2023/07/09 06:59:51;;;;;;;4.22;3.90;;;;;;;;;;5125370;28;20217;-73
2023/07/09 07:02:18;;;;;;;5.90;3.88;;;;;;;;;;5125337;28;20187;-73
2023/07/09 07:04:45;;;;;;;4.43;3.92;;;;;;;;;;5125446;28;20443;-73
2023/07/09 07:07:12;;;;;;;4.90;4.38;;;;;;;;;;5125160;28;20262;-73
2023/07/09 07:09:38;;;;;;;5.40;3.80;;;;;;;;;;5125153;28;20203;-73
2023/07/09 07:12:05;;;;;;;4.93;4.40;;;;;;;;;;5124739;28;20199;-74
2023/07/09 07:14:32;;;;;;;4.65;3.85;;;;;;;;;;5124792;28;20216;-74
2023/07/09 07:16:58;;;;;;;5.10;3.92;;;;;;;;;;5124939;28;20202;-74
2023/07/09 07:19:25;;;;;;;6.63;3.90;;;;;;;;;;5124564;28;20239;-74
2023/07/09 07:21:53;;;;;;;6.00;4.22;;;;;;;;;;5124557;28;20226;-73
2023/07/09 07:24:19;;;;;;;6.22;4.03;;;;;;;;;;5124719;28;20497;-74
2023/07/09 07:26:46;;;;;;;6.38;4.13;;;;;;;;;;5125018;27;20201;-73
2023/07/09 07:29:12;;;;;;;4.65;4.25;;;;;;;;;;5136533;27;20185;-73
2023/07/09 07:31:38;;;;;;;5.55;4.10;;;;;;;;;;5136320;27;20191;-73
2023/07/09 07:34:05;;;;;;;9.68;4.35;;;;;;;;;;5133604;27;20199;-73
2023/07/09 07:36:31;;;;;;;4.47;4.07;;;;;;;;;;5135202;27;20196;-73
2023/07/09 07:38:59;;;;;;;4.85;3.78;;;;;;;;;;5134736;27;20214;-73
2023/07/09 07:41:25;;;;;;;5.18;4.65;;;;;;;;;;5133466;27;20213;-74
2023/07/09 07:43:52;;;;;;;5.55;4.10;;;;;;;;;;5132418;27;20201;-74
2023/07/09 07:46:18;;;;;;;6.93;4.45;;;;;;;;;;5134738;27;20190;-74
2023/07/09 07:48:44;;;;;;;4.70;4.28;;;;;;;;;;5133339;27;20208;-74
2023/07/09 07:51:11;;;;;;;5.65;4.03;;;;;;;;;;5135096;27;20497;-74
2023/07/09 07:53:37;;;;;;;5.03;4.22;;;;;;;;;;5134857;27;20197;-74
2023/07/09 07:56:05;;;;;;;5.57;4.32;;;;;;;;;;5133370;27;20202;-72
2023/07/09 07:58:32;;;;;;;5.07;4.50;;;;;;;;;;5124600;28;20218;-72
2023/07/09 08:00:58;;;;;;;5.68;4.30;;;;;;;;;;5123828;28;20270;-72
2023/07/09 08:03:25;;;;;;;4.60;4.00;;;;;;;;;;5123798;28;20194;-73
2023/07/09 08:05:51;;;;;;;7.38;4.15;;;;;;;;;;5123955;28;20513;-73
2023/07/09 08:08:18;;;;;;;4.80;3.95;;;;;;;;;;5123743;27;20278;-73
2023/07/09 08:10:44;;;;;;;4.50;4.03;;;;;;;;;;5123940;28;20194;-73
2023/07/09 08:13:13;;;;;;;5.80;4.38;;;;;;;;;;5123719;28;20215;-73
2023/07/09 08:15:39;;;;;;;5.63;4.30;;;;;;;;;;5124047;28;20248;-74
2023/07/09 08:18:05;;;;;;;5.20;4.00;;;;;;;;;;5123601;28;20214;-74
2023/07/09 08:20:33;;;;;;;6.07;4.18;;;;;;;;;;5124388;28;20195;-74
2023/07/09 08:22:59;;;;;;;6.47;4.05;;;;;;;;;;5123255;28;20209;-74
2023/07/09 08:25:25;;;;;;;4.95;4.25;;;;;;;;;;5123733;28;20383;-74
2023/07/09 08:27:52;;;;;;;7.03;4.22;;;;;;;;;;5123713;28;20214;-74
2023/07/09 08:30:19;;;;;;;105.60;20.98;;;;;;;;;;5122901;28;20519;-74
2023/07/09 08:32:45;;;;;;;10.45;4.35;;;;;;;;;;5123471;28;20194;-73
2023/07/09 08:35:12;;;;;;;6.78;4.65;;;;;;;;;;5123466;28;20198;-73
2023/07/09 08:37:38;;;;;;;5.82;4.10;;;;;;;;;;5123300;28;20535;-73
2023/07/09 08:40:06;;;;;;;4.32;3.92;;;;;;;;;;5123567;28;20202;-73
2023/07/09 08:42:37;;;;;;;7.70;3.97;;;;;;;;;;5123145;28;20195;-73
2023/07/09 08:45:12;;;;;;;4.78;3.45;;;;;;;;;;5123384;28;20199;-73
2023/07/09 08:47:44;;;;;;;6.78;4.40;;;;;;;;;;5123365;28;20190;-73
2023/07/09 08:50:12;;;;;;;5.03;3.38;;;;;;;;;;5123149;28;20213;-74
2023/07/09 08:52:39;;;;;;;5.70;3.97;;;;;;;;;;5123123;28;20533;-73
2023/07/09 08:55:07;;;;;;;5.20;4.00;;;;;;;;;;5123344;28;20202;-73
2023/07/09 08:57:35;;;;;;;4.90;3.67;;;;;;;;;;5122872;28;20402;-73
2023/07/09 09:00:03;;;;;;;4.70;4.18;;;;;;;;;;5123026;28;20202;-73
2023/07/09 09:02:32;;;;;;;8.70;3.47;;;;;;;;;;5122853;28;20194;-73
2023/07/09 09:05:00;;;;;;;4.32;3.92;;;;;;;;;;5122912;28;20206;-73
2023/07/09 09:07:32;;;;;;;4.43;3.85;;;;;;;;;;5123163;28;20434;-73
2023/07/09 09:10:00;;;;;;;5.90;3.35;;;;;;;;;;5123065;28;20194;-73
2023/07/09 09:12:29;;;;;;;6.25;3.92;;;;;;;;;;5122618;28;20201;-73
2023/07/09 09:14:57;;;;;;;5.88;4.15;;;;;;;;;;5122781;28;20198;-73
2023/07/09 09:17:26;;;;;;;3.58;3.28;;;;;;;;;;5123193;28;20205;-73
2023/07/09 09:19:54;;;;;;;9.88;3.80;;;;;;;;;;5122704;28;20191;-73
2023/07/09 09:22:24;;;;;;;4.10;3.70;;;;;;;;;;5122804;28;20195;-73
2023/07/09 09:24:56;;;;;;;4.22;3.47;;;;;;;;;;5122952;28;20195;-74
2023/07/09 09:27:22;;;;;;;5.47;3.40;;;;;;;;;;5122620;28;20215;-74
2023/07/09 09:29:48;;;;;;;4.15;3.83;;;;;;;;;;5122781;28;20198;-73
2023/07/09 09:32:20;;;;;;;4.32;3.72;;;;;;;;;;5122988;28;20202;-73
2023/07/09 09:34:46;;;;;;;5.55;3.63;;;;;;;;;;5122921;28;20194;-73
2023/07/09 09:37:13;;;;;;;4.07;3.75;;;;;;;;;;5122815;28;20194;-73
2023/07/09 09:39:40;;;;;;;3.85;3.55;;;;;;;;;;5122672;28;20256;-74
2023/07/09 09:42:11;;;;;;;6.10;3.83;;;;;;;;;;5124806;28;20198;-74
2023/07/09 09:44:43;;;;;;;8.77;3.65;;;;;;;;;;5127313;28;20517;-73
2023/07/09 09:47:10;;;;;;;4.40;3.88;;;;;;;;;;5127050;28;20195;-74
2023/07/09 09:49:39;;;;;;;6.38;3.85;;;;;;;;;;5127157;28;20513;-74
2023/07/09 09:52:11;;;;;;;5.25;3.65;;;;;;;;;;5126547;28;20422;-74
2023/07/09 09:54:40;;;;;;;5.03;3.55;;;;;;;;;;5126691;28;20195;-74
2023/07/09 09:57:17;;;;;;;4.38;3.20;;;;;;;;;;5126791;28;20195;-73
2023/07/09 09:59:43;;;;;;;3.50;3.20;;;;;;;;;;5126519;28;20218;-73
2023/07/09 10:02:16;;;;;;;3.50;3.20;;;;;;;;;;5126408;28;20240;-73
2023/07/09 10:04:43;;;;;;;3.80;3.50;;;;;;;;;;5126600;28;20383;-73
2023/07/09 10:07:15;;;;;;;3.55;3.10;;;;;;;;;;5126299;28;20209;-73
2023/07/09 10:09:47;;;;;;;5.47;3.08;;;;;;;;;;5126562;27;20387;-74
2023/07/09 10:12:18;;;;;;;4.05;3.38;;;;;;;;;;5126267;28;20194;-74
2023/07/09 10:14:49;;;;;;;6.53;3.13;;;;;;;;;;5126887;28;20202;-74
2023/07/09 10:17:18;;;;;;;3.67;3.05;;;;;;;;;;5126139;28;20429;-73
2023/07/09 10:19:48;;;;;;;5.68;3.28;;;;;;;;;;5125873;28;20237;-73
2023/07/09 10:22:19;;;;;;;5.63;3.80;;;;;;;;;;5126224;28;20194;-73
2023/07/09 10:24:52;;;;;;;5.72;3.58;;;;;;;;;;5126225;28;20236;-73
2023/07/09 10:27:22;;;;;;;7.72;3.35;;;;;;;;;;5125956;28;20215;-73
2023/07/09 10:29:58;;;;;;;5.63;3.53;;;;;;;;;;5125953;27;20198;-73
2023/07/09 10:32:30;;;;;;;6.88;3.47;;;;;;;;;;5125944;28;20200;-73
2023/07/09 10:35:01;;;;;;;3.70;3.40;;;;;;;;;;5126146;28;20194;-73
2023/07/09 10:37:40;;;;;;;7.38;3.30;;;;;;;;;;5125917;28;20198;-73
2023/07/09 10:40:09;;;;;;;5.15;3.55;;;;;;;;;;5125669;28;20259;-74
2023/07/09 10:42:47;;;;;;;4.68;3.45;;;;;;;;;;5125493;28;20506;-74
2023/07/09 10:45:16;;;;;;;3.50;2.80;;;;;;;;;;5126029;28;20195;-74
2023/07/09 10:47:44;;;;;;;7.28;3.17;;;;;;;;;;5125888;28;20195;-74
2023/07/09 10:50:13;;;;;;;3.95;2.97;;;;;;;;;;5126206;28;20197;-73
2023/07/09 10:52:42;;;;;;;5.07;3.17;;;;;;;;;;5124506;27;20202;-73
2023/07/09 10:55:14;;;;;;;4.72;3.10;;;;;;;;;;5125604;28;20527;-73
2023/07/09 10:57:46;;;;;;;4.35;3.30;;;;;;;;;;5125717;28;20555;-73
2023/07/09 11:00:15;;;;;;;8.65;3.92;;;;;;;;;;5125289;28;20530;-73
2023/07/09 11:02:43;;;;;;;3.72;3.03;;;;;;;;;;5125358;28;20502;-73
2023/07/09 11:05:09;;;;;;;4.22;3.40;;;;;;;;;;5125490;28;20197;-73
2023/07/09 11:07:39;;;;;;;6.05;3.22;;;;;;;;;;5125156;28;20498;-73
2023/07/09 11:10:08;;;;;;;5.18;3.67;;;;;;;;;;5125407;27;20190;-73
2023/07/09 11:12:37;;;;;;;5.55;3.45;;;;;;;;;;5125220;27;20202;-73
2023/07/09 11:15:08;;;;;;;4.32;3.40;;;;;;;;;;5125163;28;20194;-73
2023/07/09 11:17:37;;;;;;;4.25;3.45;;;;;;;;;;5125464;28;20232;-73
2023/07/09 11:20:08;;;;;;;4.07;3.22;;;;;;;;;;5125028;28;20525;-73
2023/07/09 11:22:38;;;;;;;4.55;3.40;;;;;;;;;;5124928;28;20194;-73
2023/07/09 11:25:09;;;;;;;6.13;3.45;;;;;;;;;;5124860;28;20194;-73
2023/07/09 11:27:45;;;;;;;7.68;4.57;;;;;;;;;;5125141;28;20391;-73
2023/07/09 11:30:21;;;;;;;4.18;3.80;;;;;;;;;;5124842;28;20521;-73
2023/07/09 11:32:48;;;;;;;7.88;4.43;;;;;;;;;;5125013;28;20201;-73
2023/07/09 11:35:21;;;;;;;5.63;3.70;;;;;;;;;;5124948;28;20506;-73
2023/07/09 11:37:47;;;;;;;6.65;3.95;;;;;;;;;;5124862;28;20195;-73
2023/07/09 11:40:14;;;;;;;6.68;4.00;;;;;;;;;;5124604;28;20218;-73
2023/07/09 11:42:48;;;;;;;7.53;4.32;;;;;;;;;;5124403;28;20362;-73
2023/07/09 11:45:15;;;;;;;8.45;4.00;;;;;;;;;;5124790;28;20201;-73
2023/07/09 11:47:45;;;;;;;7.25;4.05;;;;;;;;;;5124751;28;20194;-73
2023/07/09 11:50:17;;;;;;;9.73;4.40;;;;;;;;;;5124524;28;20202;-73
2023/07/09 11:52:46;;;;;;;7.85;4.28;;;;;;;;;;5123898;28;20228;-73
2023/07/09 11:55:20;;;;;;;6.50;3.15;;;;;;;;;;5124168;28;20546;-73
2023/07/09 11:57:48;;;;;;;5.70;4.28;;;;;;;;;;5124450;28;20228;-73
2023/07/09 12:00:15;;;;;;;8.90;4.00;;;;;;;;;;5124105;28;20237;-73
2023/07/09 12:02:43;;;;;;;7.55;4.20;;;;;;;;;;5124062;28;20386;-73
2023/07/09 12:05:10;;;;;;;4.32;3.92;;;;;;;;;;5123860;28;20204;-73
2023/07/09 12:07:36;;;;;;;8.27;4.28;;;;;;;;;;5124028;28;20363;-73
2023/07/09 12:10:05;;;;;;;5.85;3.65;;;;;;;;;;5124024;28;20211;-73
2023/07/09 12:12:31;;;;;;;5.90;3.90;;;;;;;;;;5123650;28;20222;-74
2023/07/09 12:14:58;;;;;;;6.50;3.60;;;;;;;;;;5124253;28;20229;-73
2023/07/09 12:17:25;;;;;;;4.45;3.78;;;;;;;;;;5123888;28;20201;-73
2023/07/09 12:19:53;;;;;;;8.60;4.68;;;;;;;;;;5124097;28;20251;-73
2023/07/09 12:22:20;;;;;;;8.18;3.97;;;;;;;;;;5123443;28;20235;-73
2023/07/09 12:24:48;;;;;;;7.75;4.20;;;;;;;;;;5123897;28;20210;-73
2023/07/09 12:27:22;;;;;;;5.30;3.40;;;;;;;;;;5123620;27;20561;-74
2023/07/09 12:29:50;;;;;;;5.05;3.70;;;;;;;;;;5123610;28;20213;-73
2023/07/09 12:32:18;;;;;;;6.35;3.63;;;;;;;;;;5123476;28;20201;-74
2023/07/09 12:34:47;;;;;;;5.82;4.10;;;;;;;;;;5123473;28;20449;-74
2023/07/09 12:37:16;;;;;;;4.97;3.45;;;;;;;;;;5123310;28;20274;-73
2023/07/09 12:39:42;;;;;;;6.10;4.03;;;;;;;;;;5123655;28;20219;-73
2023/07/09 12:42:14;;;;;;;5.10;3.60;;;;;;;;;;5123269;28;20200;-73
2023/07/09 12:44:41;;;;;;;6.72;3.97;;;;;;;;;;5123529;28;20199;-73
2023/07/09 12:47:13;;;;;;;6.65;4.03;;;;;;;;;;5123385;28;20194;-73
2023/07/09 12:49:41;;;;;;;4.30;3.60;;;;;;;;;;5123253;28;20225;-73
2023/07/09 12:52:10;;;;;;;8.02;3.92;;;;;;;;;;5123185;28;20201;-73
2023/07/09 12:54:38;;;;;;;4.43;3.80;;;;;;;;;;5123643;28;20198;-74
2023/07/09 12:57:12;;;;;;;5.40;3.65;;;;;;;;;;5123256;28;20194;-73
2023/07/09 12:59:39;;;;;;;10.88;4.10;;;;;;;;;;5123044;28;20214;-73
2023/07/09 13:02:08;;;;;;;8.35;4.38;;;;;;;;;;5123058;28;20195;-73
2023/07/09 13:04:37;;;;;;;6.13;3.60;;;;;;;;;;5123338;28;20470;-73
2023/07/09 13:07:04;;;;;;;6.45;3.65;;;;;;;;;;5122958;28;20199;-73
2023/07/09 13:09:30;;;;;;;3.67;3.47;;;;;;;;;;5122944;28;20195;-73
2023/07/09 13:11:58;;;;;;;6.53;3.83;;;;;;;;;;5122450;28;20202;-73
2023/07/09 13:14:25;;;;;;;6.68;3.55;;;;;;;;;;5122789;28;20195;-73
2023/07/09 13:16:52;;;;;;;7.30;3.28;;;;;;;;;;5122153;28;20190;-74
2023/07/09 13:19:19;;;;;;;5.93;3.67;;;;;;;;;;5122682;28;20234;-74
2023/07/09 13:21:46;;;;;;;7.32;3.85;;;;;;;;;;5122534;28;20202;-74
2023/07/09 13:24:14;;;;;;;5.95;3.20;;;;;;;;;;5122791;28;20194;-74
2023/07/09 13:26:42;;;;;;;7.55;3.63;;;;;;;;;;5122550;28;20195;-74
2023/07/09 13:29:13;;;;;;;4.53;3.47;;;;;;;;;;5122598;28;20191;-73
2023/07/09 13:31:39;;;;;;;6.55;3.60;;;;;;;;;;5122613;28;20195;-73
2023/07/09 13:34:15;;;;;;;4.47;3.53;;;;;;;;;;5122633;28;20194;-73
2023/07/09 13:36:41;;;;;;;4.00;3.38;;;;;;;;;;5122292;28;20251;-73
2023/07/09 13:39:08;;;;;;;5.25;3.53;;;;;;;;;;5122504;28;20439;-73
2023/07/09 13:41:35;;;;;;;5.03;3.40;;;;;;;;;;5122367;28;20194;-72
2023/07/09 13:44:01;;;;;;;6.32;3.40;;;;;;;;;;5122632;28;20206;-74
2023/07/09 13:46:29;;;;;;;13.85;3.58;;;;;;;;;;5122853;28;20194;-73
2023/07/09 13:48:56;;;;;;;4.88;3.60;;;;;;;;;;5122560;28;20195;-73
2023/07/09 13:51:23;;;;;;;5.25;3.28;;;;;;;;;;5122613;28;20517;-73
2023/07/09 13:53:50;;;;;;;5.30;3.92;;;;;;;;;;5122331;28;20476;-73
2023/07/09 13:56:17;;;;;;;5.88;3.10;;;;;;;;;;5122361;28;20206;-73
2023/07/09 13:58:43;;;;;;;9.20;3.50;;;;;;;;;;5122519;28;20195;-73
2023/07/09 14:01:11;;;;;;;5.40;3.47;;;;;;;;;;5122437;28;20290;-73
2023/07/09 14:03:39;;;;;;;6.55;3.50;;;;;;;;;;5122303;28;20194;-73
2023/07/09 14:06:05;;;;;;;6.40;3.80;;;;;;;;;;5122292;28;20231;-72
2023/07/09 14:08:31;;;;;;;3.85;3.35;;;;;;;;;;5122403;28;20203;-73
2023/07/09 14:10:57;;;;;;;8.13;3.90;;;;;;;;;;5121994;28;20389;-73
2023/07/09 14:13:25;;;;;;;7.68;3.50;;;;;;;;;;5121994;28;20195;-73
2023/07/09 14:15:51;;;;;;;4.65;3.20;;;;;;;;;;5122551;28;20464;-73
2023/07/09 14:18:18;;;;;;;3.95;3.58;;;;;;;;;;5122315;28;20368;-73
2023/07/09 14:20:46;;;;;;;4.00;3.60;;;;;;;;;;5122076;28;20537;-73
2023/07/09 14:23:13;;;;;;;4.47;3.33;;;;;;;;;;5121712;28;20203;-73
2023/07/09 14:25:40;;;;;;;4.82;3.60;;;;;;;;;;5122153;28;20206;-73
2023/07/09 14:28:09;;;;;;;5.95;3.80;;;;;;;;;;5124182;28;20248;-73
2023/07/09 14:30:36;;;;;;;4.18;3.58;;;;;;;;;;5125756;28;20191;-73
2023/07/09 14:33:02;;;;;;;4.85;3.00;;;;;;;;;;5125561;28;20194;-73
2023/07/09 14:35:28;;;;;;;6.03;3.17;;;;;;;;;;5126275;28;20390;-73
2023/07/09 14:37:59;;;;;;;3.42;3.15;;;;;;;;;;5125522;28;20229;-73
2023/07/09 14:40:25;;;;;;;3.85;3.50;;;;;;;;;;5125652;28;20214;-73
2023/07/09 14:42:52;;;;;;;4.60;3.47;;;;;;;;;;5125473;28;20502;-72
2023/07/09 14:45:21;;;;;;;5.43;3.80;;;;;;;;;;5125618;28;20194;-73
2023/07/09 14:47:48;;;;;;;5.38;3.03;;;;;;;;;;5125670;28;20194;-73